createdAt,value
2018-11-22T00:00:53.874Z,27.85
2018-11-22T00:03:54.506Z,26.57
2018-11-22T00:06:52.992Z,26.15
2018-11-22T00:09:50.352Z,27.13
2018-11-22T00:12:48.095Z,27.27
2018-11-22T00:15:45.534Z,27.93
2018-11-22T00:18:42.973Z,25.52
2018-11-22T00:21:40.929Z,27.20
2018-11-22T00:24:39.952Z,27.22
2018-11-22T00:27:37.676Z,24.72
2018-11-22T00:30:35.249Z,25.80
2018-11-22T00:33:33.306Z,27.13
2018-11-22T00:36:31.037Z,26.75
2018-11-22T00:39:28.909Z,25.92
2018-11-22T00:42:26.451Z,28.00
2018-11-22T00:45:25.761Z,27.48
2018-11-22T00:48:23.624Z,28.70
2018-11-22T00:51:21.215Z,27.95
2018-11-22T00:54:19.304Z,27.98
2018-11-22T00:57:17.277Z,28.07
2018-11-22T01:00:18.018Z,28.35
2018-11-22T01:03:15.642Z,29.35
2018-11-22T01:06:13.337Z,27.50
2018-11-22T01:09:15.033Z,28.38
2018-11-22T01:12:13.150Z,28.85
2018-11-22T01:15:11.633Z,28.65
2018-11-22T01:18:09.222Z,28.45
2018-11-22T01:21:07.116Z,29.48
2018-11-22T01:24:04.580Z,27.55
2018-11-22T01:27:13.520Z,29.07
2018-11-22T01:30:18.515Z,29.92
2018-11-22T01:33:17.013Z,28.17
2018-11-22T01:36:14.314Z,27.67
2018-11-22T01:39:13.664Z,29.10
2018-11-22T01:42:11.360Z,29.82
2018-11-22T01:45:14.315Z,28.35
2018-11-22T01:48:12.137Z,27.10
2018-11-22T01:51:10.056Z,27.80
2018-11-22T01:54:11.106Z,27.90
2018-11-22T01:57:09.592Z,27.30
2018-11-22T02:00:15.751Z,27.35
2018-11-22T02:03:14.153Z,27.00
2018-11-22T02:06:11.980Z,27.48
2018-11-22T02:09:12.308Z,27.13
2018-11-22T02:12:10.424Z,27.77
2018-11-22T02:15:12.679Z,27.60
2018-11-22T02:18:10.662Z,28.40
2018-11-22T02:21:08.844Z,27.32
2018-11-22T02:24:06.546Z,27.22
2018-11-22T02:27:04.435Z,27.67
2018-11-22T02:30:01.799Z,27.17
2018-11-22T02:33:00.828Z,27.93
2018-11-22T02:35:58.853Z,27.93
2018-11-22T02:38:57.208Z,27.73
2018-11-22T02:41:54.934Z,28.62
2018-11-22T02:44:52.822Z,27.50
2018-11-22T02:47:50.854Z,29.00
2018-11-22T02:50:48.659Z,28.42
2018-11-22T02:53:46.635Z,29.67
2018-11-22T02:56:44.577Z,29.60
2018-11-22T02:59:42.264Z,29.45
2018-11-22T03:02:40.096Z,28.35
2018-11-22T03:05:37.590Z,28.25
2018-11-22T03:08:35.792Z,29.37
2018-11-22T03:11:34.153Z,30.02
2018-11-22T03:14:31.540Z,29.27
2018-11-22T03:17:29.128Z,28.70
2018-11-22T03:20:27.045Z,28.05
2018-11-22T03:23:24.383Z,29.18
2018-11-22T03:26:21.815Z,29.32
2018-11-22T03:29:19.658Z,27.82
2018-11-22T03:32:17.403Z,27.50
2018-11-22T03:35:17.094Z,28.42
2018-11-22T03:38:15.124Z,28.32
2018-11-22T03:41:13.492Z,28.70
2018-11-22T03:44:10.954Z,29.02
2018-11-22T03:47:08.618Z,27.93
2018-11-22T03:50:08.333Z,27.50
2018-11-22T03:53:06.286Z,27.27
2018-11-22T03:56:03.918Z,28.55
2018-11-22T03:59:01.306Z,28.02
2018-11-22T04:01:59.341Z,26.48
2018-11-22T04:04:57.424Z,26.90
2018-11-22T04:07:55.079Z,26.70
2018-11-22T04:10:52.643Z,27.35
2018-11-22T04:13:50.083Z,27.62
2018-11-22T04:16:47.778Z,27.32
2018-11-22T04:19:45.444Z,26.55
2018-11-22T04:22:43.445Z,25.40
2018-11-22T04:25:41.240Z,27.32
2018-11-22T04:28:39.532Z,28.55
2018-11-22T04:31:37.318Z,26.17
2018-11-22T04:34:35.205Z,27.52
2018-11-22T04:37:33.177Z,28.10
2018-11-22T04:40:32.030Z,28.92
2018-11-22T04:43:29.923Z,27.42
2018-11-22T04:46:27.438Z,28.38
2018-11-22T04:49:25.234Z,27.73
2018-11-22T04:52:22.817Z,27.15
2018-11-22T04:55:20.353Z,28.00
2018-11-22T04:58:18.859Z,26.80
2018-11-22T05:01:16.040Z,28.17
2018-11-22T05:04:15.125Z,28.38
2018-11-22T05:07:13.070Z,27.87
2018-11-22T05:10:17.218Z,29.00
2018-11-22T05:13:14.951Z,27.50
2018-11-22T05:16:15.396Z,26.73
2018-11-22T05:19:13.243Z,28.38
2018-11-22T05:22:11.373Z,28.10
2018-11-22T05:25:13.408Z,28.05
2018-11-22T05:28:11.470Z,30.10
2018-11-22T05:31:09.534Z,32.45
2018-11-22T05:34:07.406Z,31.65
2018-11-22T05:37:05.293Z,31.15
2018-11-22T05:40:03.223Z,32.00
2018-11-22T05:43:01.324Z,32.03
2018-11-22T05:45:58.910Z,32.23
2018-11-22T05:48:56.197Z,33.60
2018-11-22T05:51:56.293Z,31.42
2018-11-22T05:54:53.545Z,33.05
2018-11-22T05:57:51.715Z,33.70
2018-11-22T06:00:49.382Z,33.90
2018-11-22T06:03:47.248Z,32.85
2018-11-22T06:06:47.988Z,31.97
2018-11-22T06:09:47.747Z,33.00
2018-11-22T06:12:45.514Z,34.15
2018-11-22T06:15:42.985Z,32.73
2018-11-22T06:18:40.806Z,34.25
2018-11-22T06:21:38.588Z,32.23
2018-11-22T06:24:35.899Z,31.70
2018-11-22T06:27:33.591Z,36.38
2018-11-22T06:30:32.608Z,33.98
2018-11-22T06:33:30.363Z,33.83
2018-11-22T06:36:27.968Z,32.93
2018-11-22T06:39:26.131Z,34.30
2018-11-22T06:42:24.116Z,34.67
2018-11-22T06:45:25.689Z,32.73
2018-11-22T06:48:23.634Z,32.73
2018-11-22T06:51:21.708Z,33.35
2018-11-22T06:54:20.044Z,33.10
2018-11-22T06:57:19.758Z,39.70
2018-11-22T07:00:22.211Z,33.45
2018-11-22T07:03:20.341Z,34.27
2018-11-22T07:06:19.069Z,30.52
2018-11-22T07:09:16.715Z,32.20
2018-11-22T07:12:15.403Z,31.77
2018-11-22T07:15:16.908Z,32.63
2018-11-22T07:18:14.947Z,32.83
2018-11-22T07:21:13.006Z,33.75
2018-11-22T07:24:10.980Z,30.27
2018-11-22T07:27:08.472Z,31.52
2018-11-22T07:30:07.570Z,32.53
2018-11-22T07:33:05.660Z,30.57
2018-11-22T07:36:03.232Z,32.95
2018-11-22T07:39:00.997Z,32.08
2018-11-22T07:42:00.935Z,32.35
2018-11-22T07:45:00.816Z,33.05
2018-11-22T07:47:59.519Z,32.30
2018-11-22T07:50:57.059Z,33.88
2018-11-22T07:53:54.511Z,33.35
2018-11-22T07:56:52.287Z,33.20
2018-11-22T07:59:50.169Z,32.93
2018-11-22T08:02:48.590Z,33.98
2018-11-22T08:05:46.183Z,52.38
2018-11-22T08:08:43.967Z,34.65
2018-11-22T08:11:44.436Z,32.20
2018-11-22T08:14:42.503Z,33.85
2018-11-22T08:17:40.259Z,31.87
2018-11-22T08:20:40.372Z,32.20
2018-11-22T08:23:37.744Z,31.90
2018-11-22T08:26:35.952Z,33.18
2018-11-22T08:29:34.548Z,34.65
2018-11-22T08:32:31.990Z,32.00
2018-11-22T08:35:29.621Z,31.73
2018-11-22T08:38:27.115Z,32.55
2018-11-22T08:41:24.967Z,31.48
2018-11-22T08:44:23.836Z,32.67
2018-11-22T08:47:21.240Z,31.60
2018-11-22T08:50:20.600Z,33.45
2018-11-22T08:53:17.987Z,31.50
2018-11-22T08:56:16.046Z,31.68
2018-11-22T08:59:13.576Z,34.63
2018-11-22T09:02:11.466Z,34.25
2018-11-22T09:05:11.910Z,31.27
2018-11-22T09:08:10.648Z,32.73
2018-11-22T09:11:08.156Z,31.87
2018-11-22T09:14:06.633Z,32.53
2018-11-22T09:17:03.872Z,32.25
2018-11-22T09:20:01.140Z,32.70
2018-11-22T09:22:58.553Z,31.62
2018-11-22T09:25:56.369Z,33.33
2018-11-22T09:28:55.079Z,32.00
2018-11-22T09:31:53.831Z,32.08
2018-11-22T09:34:52.730Z,32.48
2018-11-22T09:37:50.614Z,30.70
2018-11-22T09:40:48.202Z,30.37
2018-11-22T09:43:45.662Z,34.38
2018-11-22T09:46:43.411Z,35.03
2018-11-22T09:49:41.867Z,42.83
2018-11-22T09:52:40.253Z,33.73
2018-11-22T09:55:38.432Z,32.45
2018-11-22T09:58:36.533Z,30.95
2018-11-22T10:01:34.518Z,33.90
2018-11-22T10:04:32.302Z,32.80
2018-11-22T10:07:29.700Z,32.05
2018-11-22T10:10:29.063Z,31.87
2018-11-22T10:13:27.425Z,32.28
2018-11-22T10:16:25.399Z,32.13
2018-11-22T10:19:23.229Z,34.25
2018-11-22T10:22:21.022Z,31.97
2018-11-22T10:25:18.611Z,31.48
2018-11-22T10:28:16.851Z,32.60
2018-11-22T10:31:16.965Z,32.05
2018-11-22T10:34:16.881Z,31.20
2018-11-22T10:37:14.161Z,31.00
2018-11-22T10:40:19.052Z,30.97
2018-11-22T10:43:16.950Z,30.80
2018-11-22T10:46:14.414Z,29.80
2018-11-22T10:49:11.910Z,31.17
2018-11-22T10:52:09.761Z,31.07
2018-11-22T10:55:10.485Z,31.27
2018-11-22T10:58:08.571Z,31.15
2018-11-22T11:01:23.620Z,31.20
2018-11-22T11:04:32.631Z,29.92
2018-11-22T11:07:48.651Z,31.17
2018-11-22T11:10:47.338Z,31.60
2018-11-22T11:13:44.943Z,30.30
2018-11-22T11:16:42.710Z,29.50
2018-11-22T11:19:40.581Z,29.95
2018-11-22T11:22:38.410Z,30.10
2018-11-22T11:25:35.950Z,30.23
2018-11-22T11:28:34.258Z,31.77
2018-11-22T12:18:01.324Z,30.50
2018-11-22T12:20:43.641Z,30.97
2018-11-22T12:23:26.148Z,28.52
2018-11-22T12:26:08.139Z,30.95
2018-11-22T12:28:49.823Z,31.10
2018-11-22T12:31:31.660Z,29.60
2018-11-22T12:34:14.602Z,28.75
2018-11-22T12:37:00.857Z,28.67
2018-11-22T12:39:42.734Z,30.62
2018-11-22T12:42:24.586Z,30.02
2018-11-22T12:45:09.743Z,31.85
2018-11-22T12:47:51.557Z,31.20
2018-11-22T12:50:33.389Z,30.55
2018-11-22T12:53:15.107Z,32.10
2018-11-22T12:55:57.851Z,30.85
2018-11-22T12:58:39.707Z,35.17
2018-11-22T13:01:21.793Z,34.00
2018-11-22T13:04:03.747Z,30.57
2018-11-22T13:06:45.832Z,31.30
2018-11-22T13:09:28.116Z,30.82
2018-11-22T13:12:10.632Z,29.42
2018-11-22T13:14:53.052Z,29.42
2018-11-22T13:17:34.981Z,30.40
2018-11-22T13:20:18.570Z,30.45
2018-11-22T13:23:00.759Z,31.50
2018-11-22T13:25:42.553Z,30.72
2018-11-22T13:28:24.863Z,29.18
2018-11-22T13:31:07.272Z,31.90
2018-11-22T13:33:49.585Z,31.10
2018-11-22T13:36:31.519Z,31.85
2018-11-22T13:39:13.254Z,31.15
2018-11-22T13:41:55.894Z,31.85
2018-11-22T13:44:39.898Z,29.70
2018-11-22T13:47:21.736Z,31.10
2018-11-22T13:50:04.746Z,29.55
2018-11-22T13:52:48.123Z,29.80
2018-11-22T13:55:30.247Z,30.43
2018-11-22T13:58:12.480Z,31.60
2018-11-22T14:00:54.657Z,29.45
2018-11-22T14:03:36.954Z,31.97
2018-11-22T14:06:22.350Z,31.00
2018-11-22T14:09:07.748Z,30.32
2018-11-22T14:11:49.509Z,30.10
2018-11-22T14:14:32.738Z,29.77
2018-11-22T14:17:14.764Z,34.35
2018-11-22T14:19:57.491Z,34.43
2018-11-22T14:22:39.995Z,30.70
2018-11-22T14:25:21.985Z,29.10
2018-11-22T14:28:04.885Z,31.42
2018-11-22T14:30:47.047Z,31.55
2018-11-22T14:33:29.194Z,31.75
2018-11-22T14:36:11.807Z,32.13
2018-11-22T14:38:53.914Z,30.90
2018-11-22T14:41:35.764Z,31.12
2018-11-22T14:44:17.593Z,32.08
2018-11-22T14:46:59.480Z,30.48
2018-11-22T14:49:42.853Z,31.65
2018-11-22T14:52:24.952Z,31.40
2018-11-22T14:55:07.934Z,31.35
2018-11-22T14:57:49.545Z,31.90
2018-11-22T15:00:31.725Z,30.72
2018-11-22T15:03:14.500Z,31.87
2018-11-22T15:05:57.264Z,32.28
2018-11-22T15:08:39.012Z,31.55
2018-11-22T15:11:21.521Z,31.90
2018-11-22T15:14:03.229Z,31.12
2018-11-22T15:16:45.499Z,30.02
2018-11-22T15:19:27.367Z,31.12
2018-11-22T15:22:09.352Z,32.80
2018-11-22T15:24:51.312Z,32.85
2018-11-22T15:27:33.858Z,31.52
2018-11-22T15:30:17.406Z,31.82
2018-11-22T15:33:00.043Z,35.38
2018-11-22T15:35:42.202Z,31.85
2018-11-22T15:38:24.015Z,35.80
2018-11-22T15:41:06.476Z,35.33
2018-11-22T15:43:48.920Z,34.90
2018-11-22T15:46:31.191Z,42.93
2018-11-22T15:49:14.039Z,35.55
2018-11-22T15:51:55.972Z,37.75
2018-11-22T15:54:37.801Z,39.42
2018-11-22T15:57:19.779Z,36.80
2018-11-22T16:00:02.372Z,37.13
2018-11-22T16:02:44.880Z,34.10
2018-11-22T16:05:27.847Z,34.55
2018-11-22T16:08:09.660Z,36.75
2018-11-22T16:10:52.189Z,37.25
2018-11-22T16:13:34.135Z,37.70
2018-11-22T16:16:15.823Z,36.17
2018-11-22T16:18:57.931Z,36.98
2018-11-22T16:21:40.084Z,38.70
2018-11-22T16:24:22.216Z,38.33
2018-11-22T16:27:05.087Z,36.15
2018-11-22T16:29:47.682Z,36.95
2018-11-22T16:32:29.626Z,38.53
2018-11-22T16:35:13.266Z,36.55
2018-11-22T16:37:55.699Z,37.65
2018-11-22T16:40:38.253Z,37.63
2018-11-22T16:43:20.428Z,36.38
2018-11-22T16:46:02.791Z,36.17
2018-11-22T16:48:45.057Z,34.38
2018-11-22T16:51:26.981Z,37.65
2018-11-22T16:54:09.663Z,36.95
2018-11-22T16:56:51.744Z,38.50
2018-11-22T16:59:33.773Z,36.42
2018-11-22T17:02:17.124Z,34.10
2018-11-22T17:04:58.958Z,34.90
2018-11-22T17:07:42.316Z,35.90
2018-11-22T17:10:26.156Z,34.25
2018-11-22T17:13:08.024Z,38.02
2018-11-22T17:15:50.299Z,35.20
2018-11-22T17:18:32.122Z,36.50
2018-11-22T17:21:14.530Z,35.58
2018-11-22T17:23:56.510Z,34.58
2018-11-22T17:26:38.350Z,35.03
2018-11-22T17:29:21.026Z,34.98
2018-11-22T17:32:03.521Z,34.78
2018-11-22T17:34:45.714Z,33.92
2018-11-22T17:37:28.355Z,36.35
2018-11-22T17:40:21.942Z,36.35
2018-11-22T17:43:04.299Z,35.38
2018-11-22T17:45:48.051Z,33.67
2018-11-22T17:48:30.163Z,34.83
2018-11-22T17:51:11.946Z,35.98
2018-11-22T17:53:54.942Z,37.67
2018-11-22T17:56:37.612Z,43.48
2018-11-22T17:59:19.473Z,37.53
2018-11-22T18:02:02.011Z,36.23
2018-11-22T18:04:44.118Z,34.40
2018-11-22T18:07:26.076Z,33.80
2018-11-22T18:10:11.397Z,34.50
2018-11-22T18:12:54.418Z,33.88
2018-11-22T18:16:11.698Z,36.28
2018-11-22T18:18:53.797Z,33.13
2018-11-22T18:21:35.855Z,34.67
2018-11-22T18:24:17.602Z,36.30
2018-11-22T18:26:59.455Z,36.30
2018-11-22T18:29:41.589Z,33.95
2018-11-22T18:32:23.848Z,35.95
2018-11-22T18:35:07.063Z,33.85
2018-11-22T18:37:49.067Z,34.83
2018-11-22T18:40:33.059Z,34.60
2018-11-22T18:43:15.787Z,36.77
2018-11-22T18:45:57.793Z,36.60
2018-11-22T18:48:40.119Z,35.98
2018-11-22T18:51:23.106Z,36.93
2018-11-22T18:54:05.264Z,36.98
2018-11-22T18:56:47.421Z,35.13
2018-11-22T18:59:29.423Z,35.65
2018-11-22T19:02:12.150Z,36.25
2018-11-22T19:04:54.659Z,35.43
2018-11-22T19:07:37.622Z,35.03
2018-11-22T19:10:23.558Z,33.85
2018-11-22T19:13:07.288Z,35.60
2018-11-22T19:15:49.749Z,36.20
2018-11-22T19:18:32.107Z,35.17
2018-11-22T19:21:14.509Z,42.45
2018-11-22T19:23:56.566Z,40.43
2018-11-22T19:26:38.671Z,33.50
2018-11-22T19:29:20.946Z,32.80
2018-11-22T19:32:03.415Z,35.30
2018-11-22T19:34:45.618Z,33.78
2018-11-22T19:37:28.597Z,34.53
2018-11-22T19:40:15.365Z,34.08
2018-11-22T19:42:59.078Z,33.28
2018-11-22T19:45:44.163Z,33.92
2018-11-22T19:48:25.980Z,35.45
2018-11-22T19:51:09.886Z,33.33
2018-11-22T19:53:53.787Z,33.85
2018-11-22T19:56:36.094Z,33.75
2018-11-22T19:59:19.289Z,33.50
2018-11-22T20:02:01.264Z,33.18
2018-11-22T20:04:43.296Z,32.55
2018-11-22T20:07:25.722Z,34.70
2018-11-22T20:10:16.225Z,33.63
2018-11-22T20:12:57.956Z,33.70
2018-11-22T20:15:40.402Z,34.00
2018-11-22T20:18:23.668Z,32.78
2018-11-22T20:21:06.481Z,33.55
2018-11-22T20:23:48.620Z,32.70
2018-11-22T20:26:30.993Z,33.20
2018-11-22T20:29:13.152Z,32.78
2018-11-22T20:31:55.564Z,33.02
2018-11-22T20:34:37.895Z,33.20
2018-11-22T20:37:19.874Z,33.45
2018-11-22T20:40:01.796Z,32.90
2018-11-22T20:42:44.013Z,32.05
2018-11-22T20:45:26.791Z,33.02
2018-11-22T20:48:09.014Z,31.57
2018-11-22T20:50:51.318Z,32.25
2018-11-22T20:53:33.806Z,32.73
2018-11-22T20:56:16.530Z,33.63
2018-11-22T20:58:59.820Z,33.23
2018-11-22T21:01:42.622Z,33.08
2018-11-22T21:04:24.467Z,32.42
2018-11-22T21:07:06.856Z,33.25
2018-11-22T21:09:48.849Z,33.90
2018-11-22T21:12:31.386Z,34.48
2018-11-22T21:15:17.291Z,32.83
2018-11-22T21:18:00.835Z,33.45
2018-11-22T21:20:42.849Z,34.27
2018-11-22T21:23:24.672Z,33.60
2018-11-22T21:26:14.107Z,33.33
2018-11-22T21:28:49.133Z,33.38
2018-11-22T21:31:30.941Z,34.03
2018-11-22T21:34:13.246Z,35.48
2018-11-22T21:36:55.192Z,35.52
2018-11-22T21:39:37.182Z,35.13
2018-11-22T21:42:19.122Z,33.92
2018-11-22T21:45:01.295Z,34.13
2018-11-22T21:47:43.836Z,34.43
2018-11-22T21:50:26.906Z,32.45
2018-11-22T21:53:09.225Z,35.20
2018-11-22T21:55:51.442Z,32.73
2018-11-22T21:58:34.478Z,33.63
2018-11-22T22:01:16.741Z,32.63
2018-11-22T22:03:59.039Z,32.65
2018-11-22T22:06:41.135Z,34.58
2018-11-22T22:09:23.454Z,34.18
2018-11-22T22:12:05.623Z,34.53
2018-11-22T22:14:47.712Z,34.03
2018-11-22T22:17:29.859Z,34.15
2018-11-22T22:20:17.475Z,34.00
2018-11-22T22:23:00.407Z,33.30
2018-11-22T22:25:42.307Z,34.05
2018-11-22T22:28:24.275Z,35.65
2018-11-22T22:31:06.561Z,32.60
2018-11-22T22:33:48.825Z,33.40
2018-11-22T22:36:31.072Z,34.95
2018-11-22T22:39:13.310Z,36.42
2018-11-22T22:41:55.613Z,34.65
2018-11-22T22:44:37.449Z,34.58
2018-11-22T22:47:19.871Z,33.10
2018-11-22T22:50:01.808Z,34.55
2018-11-22T22:52:44.005Z,36.33
2018-11-22T22:55:25.826Z,34.90
2018-11-22T22:58:08.276Z,34.80
2018-11-22T23:00:51.294Z,32.25
2018-11-22T23:03:33.046Z,33.25
2018-11-22T23:06:15.683Z,33.48
2018-11-22T23:08:58.043Z,34.65
2018-11-22T23:11:39.822Z,35.30
2018-11-22T23:14:21.960Z,34.35
2018-11-22T23:17:03.674Z,35.03
2018-11-22T23:19:45.642Z,33.23
2018-11-22T23:22:27.383Z,33.30
2018-11-22T23:25:10.406Z,34.03
2018-11-22T23:27:52.158Z,35.48
2018-11-22T23:30:35.279Z,34.00
2018-11-22T23:33:17.526Z,34.58
2018-11-22T23:35:59.804Z,35.68
2018-11-22T23:38:41.892Z,35.30
2018-11-22T23:41:23.848Z,33.75
2018-11-22T23:44:06.778Z,33.48
2018-11-22T23:46:49.003Z,32.95
2018-11-22T23:49:30.847Z,33.40
2018-11-22T23:52:12.937Z,35.00
2018-11-22T23:54:54.782Z,36.05
2018-11-22T23:57:37.482Z,34.15
